sensor_id;sensor_type;location;lat;lon;timestamp;temperature;humidity
50556;DHT22;36508;52.512;13.450;2022-10-31T00:00:49;14.00;99.90
50556;DHT22;36508;52.512;13.450;2022-10-31T00:03:16;14.00;99.90
50556;DHT22;36508;52.512;13.450;2022-10-31T00:05:47;13.90;99.90
50556;DHT22;36508;52.512;13.450;2022-10-31T00:08:15;13.90;99.90
50556;DHT22;36508;52.512;13.450;2022-10-31T01:55:46;13.70;99.90
50556;DHT22;36508;52.512;13.450;2022-10-31T01:58:15;13.60;99.90
50556;DHT22;36508;52.512;13.450;2022-10-31T02:00:46;13.60;99.90
50556;DHT22;36508;52.512;13.450;2022-10-31T02:03:13;13.60;99.90
50556;DHT22;36508;52.512;13.450;2022-10-31T02:05:39;13.60;99.90
50556;DHT22;36508;52.512;13.450;2022-10-31T02:08:36;13.60;99.90
50556;DHT22;36508;52.512;13.450;2022-10-31T02:11:01;13.70;99.90
50556;DHT22;36508;52.512;13.450;2022-10-31T02:13:28;13.60;99.90
50556;DHT22;36508;52.512;13.450;2022-10-31T02:15:57;13.70;99.90
50556;DHT22;36508;52.512;13.450;2022-10-31T02:18:24;13.70;99.90
50556;DHT22;36508;52.512;13.450;2022-10-31T02:27:02;13.60;99.90
50556;DHT22;36508;52.512;13.450;2022-10-31T02:29:52;13.60;99.90
50556;DHT22;36508;52.512;13.450;2022-10-31T02:40:56;13.60;99.90
50556;DHT22;36508;52.512;13.450;2022-10-31T02:43:33;13.60;99.90
50556;DHT22;36508;52.512;13.450;2022-10-31T02:48:37;13.60;99.90
50556;DHT22;36508;52.512;13.450;2022-10-31T02:51:04;13.50;99.90
50556;DHT22;36508;52.512;13.450;2022-10-31T02:53:34;13.50;99.90
50556;DHT22;36508;52.512;13.450;2022-10-31T02:56:16;13.50;99.90
50556;DHT22;36508;52.512;13.450;2022-10-31T02:58:54;13.50;99.90
50556;DHT22;36508;52.512;13.450;2022-10-31T03:01:39;13.50;99.90
50556;DHT22;36508;52.512;13.450;2022-10-31T03:14:51;13.50;99.90
50556;DHT22;36508;52.512;13.450;2022-10-31T03:17:43;13.50;99.90
50556;DHT22;36508;52.512;13.450;2022-10-31T03:20:12;13.50;99.90
50556;DHT22;36508;52.512;13.450;2022-10-31T03:22:40;13.40;99.90
50556;DHT22;36508;52.512;13.450;2022-10-31T03:25:08;13.40;99.90
50556;DHT22;36508;52.512;13.450;2022-10-31T03:27:35;13.40;99.90
50556;DHT22;36508;52.512;13.450;2022-10-31T03:30:05;13.40;99.90
50556;DHT22;36508;52.512;13.450;2022-10-31T03:32:40;13.40;99.90
50556;DHT22;36508;52.512;13.450;2022-10-31T03:35:08;13.30;99.90
50556;DHT22;36508;52.512;13.450;2022-10-31T03:37:36;13.40;99.90
50556;DHT22;36508;52.512;13.450;2022-10-31T03:40:05;13.30;99.90
50556;DHT22;36508;52.512;13.450;2022-10-31T03:42:34;13.30;99.90
50556;DHT22;36508;52.512;13.450;2022-10-31T03:45:10;13.30;99.90
50556;DHT22;36508;52.512;13.450;2022-10-31T03:47:37;13.20;99.90
50556;DHT22;36508;52.512;13.450;2022-10-31T03:50:06;13.30;99.90
50556;DHT22;36508;52.512;13.450;2022-10-31T03:55:24;13.30;99.90
50556;DHT22;36508;52.512;13.450;2022-10-31T04:00:21;13.40;99.90
50556;DHT22;36508;52.512;13.450;2022-10-31T04:03:06;13.40;99.90
50556;DHT22;36508;52.512;13.450;2022-10-31T04:05:35;13.40;99.90
50556;DHT22;36508;52.512;13.450;2022-10-31T04:08:03;13.50;99.90
50556;DHT22;36508;52.512;13.450;2022-10-31T04:10:30;13.50;99.90
50556;DHT22;36508;52.512;13.450;2022-10-31T04:13:02;13.50;99.90
50556;DHT22;36508;52.512;13.450;2022-10-31T04:15:31;13.50;99.90
50556;DHT22;36508;52.512;13.450;2022-10-31T04:17:59;13.50;99.90
50556;DHT22;36508;52.512;13.450;2022-10-31T04:20:36;13.60;99.90
50556;DHT22;36508;52.512;13.450;2022-10-31T04:23:02;13.60;99.90
50556;DHT22;36508;52.512;13.450;2022-10-31T04:25:28;13.60;99.90
50556;DHT22;36508;52.512;13.450;2022-10-31T04:27:54;13.50;99.90
50556;DHT22;36508;52.512;13.450;2022-10-31T04:30:19;13.60;99.90
50556;DHT22;36508;52.512;13.450;2022-10-31T04:32:45;13.60;99.90
50556;DHT22;36508;52.512;13.450;2022-10-31T04:35:10;13.60;99.90
50556;DHT22;36508;52.512;13.450;2022-10-31T04:37:36;13.60;99.90
50556;DHT22;36508;52.512;13.450;2022-10-31T04:40:02;13.60;99.90
50556;DHT22;36508;52.512;13.450;2022-10-31T04:42:31;13.60;99.90
50556;DHT22;36508;52.512;13.450;2022-10-31T04:44:56;13.60;99.90
50556;DHT22;36508;52.512;13.450;2022-10-31T04:47:22;13.60;99.90
50556;DHT22;36508;52.512;13.450;2022-10-31T04:49:47;13.60;99.90
50556;DHT22;36508;52.512;13.450;2022-10-31T04:52:13;13.50;99.90
50556;DHT22;36508;52.512;13.450;2022-10-31T04:54:38;13.50;99.90
50556;DHT22;36508;52.512;13.450;2022-10-31T04:57:04;13.60;99.90
50556;DHT22;36508;52.512;13.450;2022-10-31T05:02:06;13.50;99.90
50556;DHT22;36508;52.512;13.450;2022-10-31T05:04:31;13.60;99.90
50556;DHT22;36508;52.512;13.450;2022-10-31T05:06:57;13.60;99.90
50556;DHT22;36508;52.512;13.450;2022-10-31T05:09:23;13.60;99.90
50556;DHT22;36508;52.512;13.450;2022-10-31T05:11:48;13.60;99.90
50556;DHT22;36508;52.512;13.450;2022-10-31T05:14:14;13.60;99.90
50556;DHT22;36508;52.512;13.450;2022-10-31T05:16:39;13.70;99.90
50556;DHT22;36508;52.512;13.450;2022-10-31T05:19:05;13.70;99.90
50556;DHT22;36508;52.512;13.450;2022-10-31T05:21:30;13.70;99.90
50556;DHT22;36508;52.512;13.450;2022-10-31T05:23:56;13.70;99.90
50556;DHT22;36508;52.512;13.450;2022-10-31T05:26:21;13.70;99.90
50556;DHT22;36508;52.512;13.450;2022-10-31T05:28:47;13.70;99.90
50556;DHT22;36508;52.512;13.450;2022-10-31T05:31:12;13.70;99.90
50556;DHT22;36508;52.512;13.450;2022-10-31T05:33:37;13.70;99.90
50556;DHT22;36508;52.512;13.450;2022-10-31T05:36:03;13.70;99.90
50556;DHT22;36508;52.512;13.450;2022-10-31T05:38:29;13.60;99.90
50556;DHT22;36508;52.512;13.450;2022-10-31T05:40:55;13.60;99.90
50556;DHT22;36508;52.512;13.450;2022-10-31T05:43:25;13.60;99.90
50556;DHT22;36508;52.512;13.450;2022-10-31T05:45:54;13.70;99.90
50556;DHT22;36508;52.512;13.450;2022-10-31T05:48:20;13.70;99.90
50556;DHT22;36508;52.512;13.450;2022-10-31T05:50:47;13.70;99.90
50556;DHT22;36508;52.512;13.450;2022-10-31T05:53:13;13.60;99.90
50556;DHT22;36508;52.512;13.450;2022-10-31T05:55:38;13.60;99.90
50556;DHT22;36508;52.512;13.450;2022-10-31T05:58:06;13.60;99.90
50556;DHT22;36508;52.512;13.450;2022-10-31T06:00:31;13.60;99.90
50556;DHT22;36508;52.512;13.450;2022-10-31T06:03:04;13.50;99.90
50556;DHT22;36508;52.512;13.450;2022-10-31T06:05:31;13.60;99.90
50556;DHT22;36508;52.512;13.450;2022-10-31T06:07:57;13.60;99.90
50556;DHT22;36508;52.512;13.450;2022-10-31T06:10:23;13.50;99.90
50556;DHT22;36508;52.512;13.450;2022-10-31T06:12:49;13.50;99.90
50556;DHT22;36508;52.512;13.450;2022-10-31T06:15:15;13.50;99.90
50556;DHT22;36508;52.512;13.450;2022-10-31T06:17:40;13.60;99.90
50556;DHT22;36508;52.512;13.450;2022-10-31T06:20:06;13.50;99.90
50556;DHT22;36508;52.512;13.450;2022-10-31T06:22:32;13.50;99.90
50556;DHT22;36508;52.512;13.450;2022-10-31T06:24:58;13.60;99.90
50556;DHT22;36508;52.512;13.450;2022-10-31T06:27:24;13.60;99.90
50556;DHT22;36508;52.512;13.450;2022-10-31T06:29:49;13.70;99.90
50556;DHT22;36508;52.512;13.450;2022-10-31T06:32:15;13.70;99.90
50556;DHT22;36508;52.512;13.450;2022-10-31T06:34:41;13.70;99.90
50556;DHT22;36508;52.512;13.450;2022-10-31T06:37:08;13.70;99.90
50556;DHT22;36508;52.512;13.450;2022-10-31T06:39:34;13.70;99.90
50556;DHT22;36508;52.512;13.450;2022-10-31T06:42:00;13.60;99.90
50556;DHT22;36508;52.512;13.450;2022-10-31T06:44:25;13.70;99.90
50556;DHT22;36508;52.512;13.450;2022-10-31T06:46:51;13.70;99.90
50556;DHT22;36508;52.512;13.450;2022-10-31T06:49:16;13.80;99.90
50556;DHT22;36508;52.512;13.450;2022-10-31T06:51:42;13.90;99.90
50556;DHT22;36508;52.512;13.450;2022-10-31T06:54:07;13.80;99.90
50556;DHT22;36508;52.512;13.450;2022-10-31T06:56:33;13.90;99.90
50556;DHT22;36508;52.512;13.450;2022-10-31T06:58:58;13.90;99.90
50556;DHT22;36508;52.512;13.450;2022-10-31T07:01:24;13.80;99.90
50556;DHT22;36508;52.512;13.450;2022-10-31T07:03:49;13.80;99.90
50556;DHT22;36508;52.512;13.450;2022-10-31T07:06:15;13.90;99.90
50556;DHT22;36508;52.512;13.450;2022-10-31T07:08:40;14.10;99.90
50556;DHT22;36508;52.512;13.450;2022-10-31T07:11:06;14.00;99.90
50556;DHT22;36508;52.512;13.450;2022-10-31T07:13:31;14.20;99.90
50556;DHT22;36508;52.512;13.450;2022-10-31T07:16:02;14.20;99.90
50556;DHT22;36508;52.512;13.450;2022-10-31T07:18:29;14.30;99.90
50556;DHT22;36508;52.512;13.450;2022-10-31T07:20:54;14.50;99.90
50556;DHT22;36508;52.512;13.450;2022-10-31T07:23:21;14.50;99.90
50556;DHT22;36508;52.512;13.450;2022-10-31T07:25:46;14.50;99.90
50556;DHT22;36508;52.512;13.450;2022-10-31T07:28:12;14.50;99.90
50556;DHT22;36508;52.512;13.450;2022-10-31T07:30:38;14.60;99.90
50556;DHT22;36508;52.512;13.450;2022-10-31T07:33:05;14.70;99.90
50556;DHT22;36508;52.512;13.450;2022-10-31T07:35:31;14.80;99.90
50556;DHT22;36508;52.512;13.450;2022-10-31T07:37:57;14.80;99.90
50556;DHT22;36508;52.512;13.450;2022-10-31T07:40:23;15.10;99.90
50556;DHT22;36508;52.512;13.450;2022-10-31T07:42:51;15.20;99.90
50556;DHT22;36508;52.512;13.450;2022-10-31T07:45:19;15.20;99.90
50556;DHT22;36508;52.512;13.450;2022-10-31T07:47:50;15.20;99.90
50556;DHT22;36508;52.512;13.450;2022-10-31T07:50:21;15.20;99.90
50556;DHT22;36508;52.512;13.450;2022-10-31T07:52:47;15.10;99.90
50556;DHT22;36508;52.512;13.450;2022-10-31T07:55:14;15.10;99.90
50556;DHT22;36508;52.512;13.450;2022-10-31T07:57:39;15.10;99.90
50556;DHT22;36508;52.512;13.450;2022-10-31T08:00:07;15.20;99.90
50556;DHT22;36508;52.512;13.450;2022-10-31T08:02:33;15.10;99.90
50556;DHT22;36508;52.512;13.450;2022-10-31T08:04:59;15.00;99.90
50556;DHT22;36508;52.512;13.450;2022-10-31T08:07:25;15.10;99.90
50556;DHT22;36508;52.512;13.450;2022-10-31T08:09:51;15.10;99.90
50556;DHT22;36508;52.512;13.450;2022-10-31T08:12:17;15.10;99.90
50556;DHT22;36508;52.512;13.450;2022-10-31T08:14:43;15.10;99.90
50556;DHT22;36508;52.512;13.450;2022-10-31T08:17:09;15.20;99.90
50556;DHT22;36508;52.512;13.450;2022-10-31T08:19:35;15.20;99.90
50556;DHT22;36508;52.512;13.450;2022-10-31T08:24:33;15.20;99.90
50556;DHT22;36508;52.512;13.450;2022-10-31T08:26:58;15.20;99.90
50556;DHT22;36508;52.512;13.450;2022-10-31T08:29:24;15.30;99.90
50556;DHT22;36508;52.512;13.450;2022-10-31T08:31:49;15.30;99.90
50556;DHT22;36508;52.512;13.450;2022-10-31T08:34:15;15.30;99.90
50556;DHT22;36508;52.512;13.450;2022-10-31T08:36:40;15.30;99.90
50556;DHT22;36508;52.512;13.450;2022-10-31T08:39:07;15.20;99.90
50556;DHT22;36508;52.512;13.450;2022-10-31T08:41:33;15.20;99.90
50556;DHT22;36508;52.512;13.450;2022-10-31T08:43:58;15.10;99.90
50556;DHT22;36508;52.512;13.450;2022-10-31T08:46:24;15.20;99.90
50556;DHT22;36508;52.512;13.450;2022-10-31T08:48:49;15.20;99.90
50556;DHT22;36508;52.512;13.450;2022-10-31T08:51:15;15.20;99.90
50556;DHT22;36508;52.512;13.450;2022-10-31T08:53:40;15.20;99.90
50556;DHT22;36508;52.512;13.450;2022-10-31T08:56:06;15.20;99.90
50556;DHT22;36508;52.512;13.450;2022-10-31T08:58:32;15.20;99.90
50556;DHT22;36508;52.512;13.450;2022-10-31T09:00:59;15.30;99.90
50556;DHT22;36508;52.512;13.450;2022-10-31T09:03:27;15.50;99.90
50556;DHT22;36508;52.512;13.450;2022-10-31T09:06:00;15.50;99.90
50556;DHT22;36508;52.512;13.450;2022-10-31T09:08:26;15.70;99.90
50556;DHT22;36508;52.512;13.450;2022-10-31T09:10:52;15.70;99.90
50556;DHT22;36508;52.512;13.450;2022-10-31T09:13:21;15.70;99.90
50556;DHT22;36508;52.512;13.450;2022-10-31T09:15:48;15.90;99.90
50556;DHT22;36508;52.512;13.450;2022-10-31T09:18:16;16.10;99.90
50556;DHT22;36508;52.512;13.450;2022-10-31T09:20:43;16.10;99.90
50556;DHT22;36508;52.512;13.450;2022-10-31T09:25:36;16.10;99.90
50556;DHT22;36508;52.512;13.450;2022-10-31T09:28:03;16.00;99.90
50556;DHT22;36508;52.512;13.450;2022-10-31T09:30:31;16.20;99.90
50556;DHT22;36508;52.512;13.450;2022-10-31T09:32:58;16.10;99.90
50556;DHT22;36508;52.512;13.450;2022-10-31T09:35:25;16.20;99.90
50556;DHT22;36508;52.512;13.450;2022-10-31T09:37:58;16.10;99.90
50556;DHT22;36508;52.512;13.450;2022-10-31T09:40:29;16.10;99.90
50556;DHT22;36508;52.512;13.450;2022-10-31T09:48:18;16.80;99.90
50556;DHT22;36508;52.512;13.450;2022-10-31T09:50:50;17.10;99.90
50556;DHT22;36508;52.512;13.450;2022-10-31T09:53:25;17.40;99.90
50556;DHT22;36508;52.512;13.450;2022-10-31T09:55:53;17.10;99.90
50556;DHT22;36508;52.512;13.450;2022-10-31T09:58:23;16.80;99.90
50556;DHT22;36508;52.512;13.450;2022-10-31T10:00:49;16.60;99.90
50556;DHT22;36508;52.512;13.450;2022-10-31T10:08:32;16.80;99.90
50556;DHT22;36508;52.512;13.450;2022-10-31T10:11:31;18.50;99.90
50556;DHT22;36508;52.512;13.450;2022-10-31T10:16:49;22.50;99.90
50556;DHT22;36508;52.512;13.450;2022-10-31T10:25:38;26.40;99.90
50556;DHT22;36508;52.512;13.450;2022-10-31T10:28:25;25.50;99.90
50556;DHT22;36508;52.512;13.450;2022-10-31T10:31:01;24.40;99.90
50556;DHT22;36508;52.512;13.450;2022-10-31T10:33:33;24.00;99.90
50556;DHT22;36508;52.512;13.450;2022-10-31T10:36:14;23.40;99.90
50556;DHT22;36508;52.512;13.450;2022-10-31T10:39:03;22.70;99.90
50556;DHT22;36508;52.512;13.450;2022-10-31T10:41:32;23.10;99.90
50556;DHT22;36508;52.512;13.450;2022-10-31T10:43:57;23.40;99.90
50556;DHT22;36508;52.512;13.450;2022-10-31T10:49:31;26.80;99.90
50556;DHT22;36508;52.512;13.450;2022-10-31T10:52:06;28.40;99.90
50556;DHT22;36508;52.512;13.450;2022-10-31T10:54:58;29.70;99.90
50556;DHT22;36508;52.512;13.450;2022-10-31T11:00:23;30.50;99.90
50556;DHT22;36508;52.512;13.450;2022-10-31T11:02:49;30.20;99.90
50556;DHT22;36508;52.512;13.450;2022-10-31T11:07:53;31.10;99.90
50556;DHT22;36508;52.512;13.450;2022-10-31T11:10:19;30.10;99.90
50556;DHT22;36508;52.512;13.450;2022-10-31T11:13:14;30.30;99.90
50556;DHT22;36508;52.512;13.450;2022-10-31T11:16:14;30.40;99.90
50556;DHT22;36508;52.512;13.450;2022-10-31T11:18:43;30.60;99.90
50556;DHT22;36508;52.512;13.450;2022-10-31T11:21:29;30.10;99.90
50556;DHT22;36508;52.512;13.450;2022-10-31T11:26:37;29.10;99.90
50556;DHT22;36508;52.512;13.450;2022-10-31T11:29:04;28.60;99.90
50556;DHT22;36508;52.512;13.450;2022-10-31T11:31:31;28.40;99.90
50556;DHT22;36508;52.512;13.450;2022-10-31T11:34:00;27.50;99.90
50556;DHT22;36508;52.512;13.450;2022-10-31T11:36:32;26.40;99.90
50556;DHT22;36508;52.512;13.450;2022-10-31T11:38:59;25.00;99.90
50556;DHT22;36508;52.512;13.450;2022-10-31T11:41:37;24.30;99.90
50556;DHT22;36508;52.512;13.450;2022-10-31T11:44:26;23.80;99.90
50556;DHT22;36508;52.512;13.450;2022-10-31T11:46:56;23.10;99.90
50556;DHT22;36508;52.512;13.450;2022-10-31T11:49:36;22.80;99.90
50556;DHT22;36508;52.512;13.450;2022-10-31T11:52:22;22.60;99.90
50556;DHT22;36508;52.512;13.450;2022-10-31T11:54:55;22.20;99.90
50556;DHT22;36508;52.512;13.450;2022-10-31T11:57:24;21.90;99.90
50556;DHT22;36508;52.512;13.450;2022-10-31T11:59:55;21.50;99.90
50556;DHT22;36508;52.512;13.450;2022-10-31T12:02:21;21.00;99.90
50556;DHT22;36508;52.512;13.450;2022-10-31T12:04:53;20.60;99.90
50556;DHT22;36508;52.512;13.450;2022-10-31T12:07:21;20.60;99.90
50556;DHT22;36508;52.512;13.450;2022-10-31T12:09:47;20.60;99.90
50556;DHT22;36508;52.512;13.450;2022-10-31T12:12:22;20.50;99.90
50556;DHT22;36508;52.512;13.450;2022-10-31T12:17:34;20.50;99.90
50556;DHT22;36508;52.512;13.450;2022-10-31T12:20:33;20.50;99.90
50556;DHT22;36508;52.512;13.450;2022-10-31T12:23:18;20.60;99.90
50556;DHT22;36508;52.512;13.450;2022-10-31T12:25:58;20.70;99.90
50556;DHT22;36508;52.512;13.450;2022-10-31T12:31:45;20.50;99.90
50556;DHT22;36508;52.512;13.450;2022-10-31T12:34:47;20.40;99.90
50556;DHT22;36508;52.512;13.450;2022-10-31T12:45:57;19.80;99.90
50556;DHT22;36508;52.512;13.450;2022-10-31T12:48:36;20.10;99.90
50556;DHT22;36508;52.512;13.450;2022-10-31T12:59:42;20.60;99.90
50556;DHT22;36508;52.512;13.450;2022-10-31T13:02:41;20.70;99.90
50556;DHT22;36508;52.512;13.450;2022-10-31T13:08:04;20.80;99.90
50556;DHT22;36508;52.512;13.450;2022-10-31T13:10:48;21.00;99.90
50556;DHT22;36508;52.512;13.450;2022-10-31T13:13:32;20.70;99.90
50556;DHT22;36508;52.512;13.450;2022-10-31T13:16:25;20.60;99.90
50556;DHT22;36508;52.512;13.450;2022-10-31T13:19:15;20.50;99.90
50556;DHT22;36508;52.512;13.450;2022-10-31T13:21:50;20.60;99.90
50556;DHT22;36508;52.512;13.450;2022-10-31T13:24:21;20.70;99.90
50556;DHT22;36508;52.512;13.450;2022-10-31T13:26:50;20.70;99.90
50556;DHT22;36508;52.512;13.450;2022-10-31T13:29:29;20.70;99.90
50556;DHT22;36508;52.512;13.450;2022-10-31T13:31:56;20.70;99.90
50556;DHT22;36508;52.512;13.450;2022-10-31T13:34:27;20.70;99.90
50556;DHT22;36508;52.512;13.450;2022-10-31T13:37:18;20.60;99.90
50556;DHT22;36508;52.512;13.450;2022-10-31T13:39:49;20.60;99.90
50556;DHT22;36508;52.512;13.450;2022-10-31T13:42:25;20.50;99.90
50556;DHT22;36508;52.512;13.450;2022-10-31T13:44:54;20.50;99.90
50556;DHT22;36508;52.512;13.450;2022-10-31T13:47:26;20.60;99.90
50556;DHT22;36508;52.512;13.450;2022-10-31T13:49:51;20.60;99.90
50556;DHT22;36508;52.512;13.450;2022-10-31T13:52:28;20.30;99.90
50556;DHT22;36508;52.512;13.450;2022-10-31T13:54:54;20.20;99.90
50556;DHT22;36508;52.512;13.450;2022-10-31T13:57:40;20.00;99.90
50556;DHT22;36508;52.512;13.450;2022-10-31T14:00:27;19.80;99.90
50556;DHT22;36508;52.512;13.450;2022-10-31T14:02:56;19.90;99.90
50556;DHT22;36508;52.512;13.450;2022-10-31T14:05:26;20.00;99.90
50556;DHT22;36508;52.512;13.450;2022-10-31T14:07:53;20.10;99.90
50556;DHT22;36508;52.512;13.450;2022-10-31T14:10:26;19.90;99.90
50556;DHT22;36508;52.512;13.450;2022-10-31T14:13:05;19.80;99.90
50556;DHT22;36508;52.512;13.450;2022-10-31T14:15:31;19.60;99.90
50556;DHT22;36508;52.512;13.450;2022-10-31T14:18:06;19.60;99.90
50556;DHT22;36508;52.512;13.450;2022-10-31T14:20:43;19.60;99.90
50556;DHT22;36508;52.512;13.450;2022-10-31T14:23:35;19.70;99.90
50556;DHT22;36508;52.512;13.450;2022-10-31T14:28:51;19.80;99.90
50556;DHT22;36508;52.512;13.450;2022-10-31T14:37:25;19.50;99.90
50556;DHT22;36508;52.512;13.450;2022-10-31T14:50:47;19.10;99.90
50556;DHT22;36508;52.512;13.450;2022-10-31T14:53:27;18.90;99.90
50556;DHT22;36508;52.512;13.450;2022-10-31T14:55:56;18.80;99.90
50556;DHT22;36508;52.512;13.450;2022-10-31T14:58:43;18.70;99.90
50556;DHT22;36508;52.512;13.450;2022-10-31T15:01:27;18.30;99.90
50556;DHT22;36508;52.512;13.450;2022-10-31T15:03:57;18.10;99.90
50556;DHT22;36508;52.512;13.450;2022-10-31T15:06:24;18.00;99.90
50556;DHT22;36508;52.512;13.450;2022-10-31T15:08:52;18.00;99.90
50556;DHT22;36508;52.512;13.450;2022-10-31T15:11:26;18.00;99.90
50556;DHT22;36508;52.512;13.450;2022-10-31T15:13:54;17.80;99.90
50556;DHT22;36508;52.512;13.450;2022-10-31T15:16:33;17.60;99.90
50556;DHT22;36508;52.512;13.450;2022-10-31T15:19:11;17.40;99.90
50556;DHT22;36508;52.512;13.450;2022-10-31T15:21:42;17.30;99.90
50556;DHT22;36508;52.512;13.450;2022-10-31T15:24:12;17.20;99.90
50556;DHT22;36508;52.512;13.450;2022-10-31T15:26:45;17.00;99.90
50556;DHT22;36508;52.512;13.450;2022-10-31T15:29:13;17.00;99.90
50556;DHT22;36508;52.512;13.450;2022-10-31T15:31:48;16.90;99.90
50556;DHT22;36508;52.512;13.450;2022-10-31T15:34:20;16.90;99.90
50556;DHT22;36508;52.512;13.450;2022-10-31T15:36:49;16.80;99.90
50556;DHT22;36508;52.512;13.450;2022-10-31T15:39:16;16.80;99.90
50556;DHT22;36508;52.512;13.450;2022-10-31T15:41:53;17.00;99.90
50556;DHT22;36508;52.512;13.450;2022-10-31T15:44:35;17.10;99.90
50556;DHT22;36508;52.512;13.450;2022-10-31T15:47:04;16.90;99.90
50556;DHT22;36508;52.512;13.450;2022-10-31T15:49:54;16.80;99.90
50556;DHT22;36508;52.512;13.450;2022-10-31T15:52:32;16.80;99.90
50556;DHT22;36508;52.512;13.450;2022-10-31T15:57:42;16.50;99.90
50556;DHT22;36508;52.512;13.450;2022-10-31T16:00:27;16.60;99.90
50556;DHT22;36508;52.512;13.450;2022-10-31T16:08:25;16.50;99.90
50556;DHT22;36508;52.512;13.450;2022-10-31T16:10:51;16.50;99.90
50556;DHT22;36508;52.512;13.450;2022-10-31T16:13:20;16.60;99.90
50556;DHT22;36508;52.512;13.450;2022-10-31T16:16:04;16.40;99.90
50556;DHT22;36508;52.512;13.450;2022-10-31T16:18:37;16.30;99.90
50556;DHT22;36508;52.512;13.450;2022-10-31T16:21:04;16.20;99.90
50556;DHT22;36508;52.512;13.450;2022-10-31T16:23:30;16.30;99.90
50556;DHT22;36508;52.512;13.450;2022-10-31T16:25:55;16.30;99.90
50556;DHT22;36508;52.512;13.450;2022-10-31T16:28:23;16.20;99.90
50556;DHT22;36508;52.512;13.450;2022-10-31T16:30:50;16.20;99.90
50556;DHT22;36508;52.512;13.450;2022-10-31T16:35:53;16.30;99.90
50556;DHT22;36508;52.512;13.450;2022-10-31T16:38:19;16.40;99.90
50556;DHT22;36508;52.512;13.450;2022-10-31T16:40:44;16.40;99.90
50556;DHT22;36508;52.512;13.450;2022-10-31T16:43:13;16.30;99.90
50556;DHT22;36508;52.512;13.450;2022-10-31T16:45:49;16.20;99.90
50556;DHT22;36508;52.512;13.450;2022-10-31T16:48:20;16.00;99.90
50556;DHT22;36508;52.512;13.450;2022-10-31T16:50:48;16.10;99.90
50556;DHT22;36508;52.512;13.450;2022-10-31T16:53:17;16.10;99.90
50556;DHT22;36508;52.512;13.450;2022-10-31T16:58:16;15.90;99.90
50556;DHT22;36508;52.512;13.450;2022-10-31T17:00:42;15.70;99.90
50556;DHT22;36508;52.512;13.450;2022-10-31T17:03:08;15.70;99.90
50556;DHT22;36508;52.512;13.450;2022-10-31T17:05:34;15.60;99.90
50556;DHT22;36508;52.512;13.450;2022-10-31T17:08:01;15.60;99.90
50556;DHT22;36508;52.512;13.450;2022-10-31T17:10:26;15.60;99.90
50556;DHT22;36508;52.512;13.450;2022-10-31T17:12:52;15.50;99.90
50556;DHT22;36508;52.512;13.450;2022-10-31T17:15:23;15.50;99.90
50556;DHT22;36508;52.512;13.450;2022-10-31T17:17:49;15.40;99.90
50556;DHT22;36508;52.512;13.450;2022-10-31T17:20:20;15.30;99.90
50556;DHT22;36508;52.512;13.450;2022-10-31T17:22:46;15.40;99.90
50556;DHT22;36508;52.512;13.450;2022-10-31T17:25:16;15.40;99.90
50556;DHT22;36508;52.512;13.450;2022-10-31T17:27:42;15.50;99.90
50556;DHT22;36508;52.512;13.450;2022-10-31T17:30:10;15.40;99.90
50556;DHT22;36508;52.512;13.450;2022-10-31T17:32:36;15.30;99.90
50556;DHT22;36508;52.512;13.450;2022-10-31T17:35:01;15.40;99.90
50556;DHT22;36508;52.512;13.450;2022-10-31T17:37:27;15.50;99.90
50556;DHT22;36508;52.512;13.450;2022-10-31T17:39:52;15.50;99.90
50556;DHT22;36508;52.512;13.450;2022-10-31T17:42:18;15.40;99.90
50556;DHT22;36508;52.512;13.450;2022-10-31T17:44:43;15.50;99.90
50556;DHT22;36508;52.512;13.450;2022-10-31T17:47:08;15.40;99.90
50556;DHT22;36508;52.512;13.450;2022-10-31T17:49:34;15.30;99.90
50556;DHT22;36508;52.512;13.450;2022-10-31T17:51:59;15.30;99.90
50556;DHT22;36508;52.512;13.450;2022-10-31T17:54:25;15.30;99.90
50556;DHT22;36508;52.512;13.450;2022-10-31T17:56:52;15.30;99.90
50556;DHT22;36508;52.512;13.450;2022-10-31T17:59:18;15.40;99.90
50556;DHT22;36508;52.512;13.450;2022-10-31T18:01:46;15.30;99.90
50556;DHT22;36508;52.512;13.450;2022-10-31T18:04:11;15.30;99.90
50556;DHT22;36508;52.512;13.450;2022-10-31T18:06:37;15.40;99.90
50556;DHT22;36508;52.512;13.450;2022-10-31T18:09:05;15.30;99.90
50556;DHT22;36508;52.512;13.450;2022-10-31T18:11:31;15.30;99.90
50556;DHT22;36508;52.512;13.450;2022-10-31T18:13:58;15.30;99.90
50556;DHT22;36508;52.512;13.450;2022-10-31T18:16:24;15.30;99.90
50556;DHT22;36508;52.512;13.450;2022-10-31T18:18:55;15.20;99.90
50556;DHT22;36508;52.512;13.450;2022-10-31T18:21:23;15.20;99.90
50556;DHT22;36508;52.512;13.450;2022-10-31T18:23:55;15.30;99.90
50556;DHT22;36508;52.512;13.450;2022-10-31T18:26:22;15.30;99.90
50556;DHT22;36508;52.512;13.450;2022-10-31T18:28:48;15.30;99.90
50556;DHT22;36508;52.512;13.450;2022-10-31T18:31:13;15.30;99.90
50556;DHT22;36508;52.512;13.450;2022-10-31T18:33:39;15.20;99.90
50556;DHT22;36508;52.512;13.450;2022-10-31T18:36:07;15.20;99.90
50556;DHT22;36508;52.512;13.450;2022-10-31T18:38:33;15.20;99.90
50556;DHT22;36508;52.512;13.450;2022-10-31T18:41:01;15.10;99.90
50556;DHT22;36508;52.512;13.450;2022-10-31T18:43:26;15.20;99.90
50556;DHT22;36508;52.512;13.450;2022-10-31T18:45:52;15.10;99.90
50556;DHT22;36508;52.512;13.450;2022-10-31T18:48:17;15.20;99.90
50556;DHT22;36508;52.512;13.450;2022-10-31T18:50:43;15.20;99.90
50556;DHT22;36508;52.512;13.450;2022-10-31T18:53:09;15.10;99.90
50556;DHT22;36508;52.512;13.450;2022-10-31T18:55:38;15.10;99.90
50556;DHT22;36508;52.512;13.450;2022-10-31T18:58:04;15.20;99.90
50556;DHT22;36508;52.512;13.450;2022-10-31T19:00:30;15.30;99.90
50556;DHT22;36508;52.512;13.450;2022-10-31T19:02:55;15.20;99.90
50556;DHT22;36508;52.512;13.450;2022-10-31T19:05:21;15.20;99.90
50556;DHT22;36508;52.512;13.450;2022-10-31T19:07:46;15.00;99.90
50556;DHT22;36508;52.512;13.450;2022-10-31T19:10:12;15.00;99.90
50556;DHT22;36508;52.512;13.450;2022-10-31T19:12:37;14.80;99.90
50556;DHT22;36508;52.512;13.450;2022-10-31T19:15:03;14.90;99.90
50556;DHT22;36508;52.512;13.450;2022-10-31T19:17:30;14.90;99.90
50556;DHT22;36508;52.512;13.450;2022-10-31T19:19:56;14.80;99.90
50556;DHT22;36508;52.512;13.450;2022-10-31T19:22:21;14.90;99.90
50556;DHT22;36508;52.512;13.450;2022-10-31T19:24:47;14.90;99.90
50556;DHT22;36508;52.512;13.450;2022-10-31T19:27:12;14.80;99.90